Highworth, United Kingdom
Current Conditions -  °F | °C
As of 3:10 AM on Monday 24 Nov 2014 (Local Time) from EGVA Reporting Station
Haze Haze  
Wind Chill: -5°   Ceiling: Unl
Heat Index: -2°   Visibility: 2.5mi
Dew Point: -2°   Wind: 5mph
Humidity: 100%   Direction: 250°WSW
Pressure: 30.23"   Gusts: NA
Location:  51.63°N, 1.71°W
Report Text: EGVA 240310Z AUTO 25004KT 4000 R27/1200 BR CLR M02/M02 A3023 RMK AO2 VIS 2000V4000 $
Loading
Personal Weather Stations






























Interactive Weather Map New forecast layout! Learn more

10-Day Weather Forecast

Advertisements
Track Severe Weather on mobile